Time;durP1;ratioP1;P1;durP2;ratioP2;P2;SDS_P1;SDS_P2;PMS_P1;PMS_P2;Temp;Humidity;BMP_temperature;BMP_pressure;BME280_temperature;BME280_humidity;BME280_pressure;Samples;Min_cycle;Max_cycle;Signal;HPM_P1;HPM_P2
2024/01/17 00:00:12;;;;;;;6.28;2.67;;;28.70;97.80;;;;;;4945285;29;20463;-72
2024/01/17 00:02:40;;;;;;;10.43;3.95;;;28.80;97.80;;;;;;4940018;29;20043;-71
2024/01/17 00:05:11;;;;;;;6.32;3.35;;;28.90;97.70;;;;;;4939477;29;20978;-73
2024/01/17 00:07:38;;;;;;;6.18;3.60;;;29.10;97.30;;;;;;4947470;28;20118;-72
2024/01/17 00:10:06;;;;;;;9.10;3.17;;;29.40;97.40;;;;;;4934546;29;20020;-71
2024/01/17 00:12:34;;;;;;;10.10;3.13;;;29.50;97.10;;;;;;4941528;29;20043;-72
2024/01/17 00:15:01;;;;;;;5.80;2.45;;;29.70;97.30;;;;;;4935323;29;20019;-73
2024/01/17 00:17:29;;;;;;;5.85;2.80;;;29.70;97.50;;;;;;4956434;28;20027;-71
2024/01/17 00:19:57;;;;;;;7.28;2.88;;;29.60;96.70;;;;;;4947450;28;20028;-69
2024/01/17 00:22:24;;;;;;;5.97;2.88;;;29.00;97.00;;;;;;4942997;29;20039;-71
2024/01/17 00:24:51;;;;;;;5.20;2.78;;;28.60;98.10;;;;;;4939498;28;20078;-71
2024/01/17 00:27:23;;;;;;;5.88;2.90;;;28.70;98.40;;;;;;4947635;28;20039;-71
2024/01/17 00:29:57;;;;;;;5.43;3.08;;;28.80;98.00;;;;;;4940446;29;20031;-71
2024/01/17 00:32:25;;;;;;;7.90;3.42;;;28.90;98.20;;;;;;4942464;29;20047;-71
2024/01/17 00:34:52;;;;;;;8.98;3.88;;;28.80;97.50;;;;;;4934417;29;20031;-70
2024/01/17 00:37:20;;;;;;;6.40;3.20;;;28.90;97.80;;;;;;4935607;29;20023;-70
2024/01/17 00:39:47;;;;;;;5.15;3.05;;;28.90;97.70;;;;;;4940621;28;20426;-72
2024/01/17 00:42:15;;;;;;;11.95;3.65;;;28.70;98.60;;;;;;4938352;29;20131;-71
2024/01/17 00:44:42;;;;;;;7.05;3.47;;;28.90;98.20;;;;;;4960711;28;20027;-71
2024/01/17 00:47:11;;;;;;;5.95;3.47;;;28.80;98.50;;;;;;4941905;29;20085;-72
2024/01/17 00:49:41;;;;;;;5.78;2.97;;;28.80;98.20;;;;;;4944513;28;20035;-71
2024/01/17 00:52:09;;;;;;;6.75;3.03;;;28.60;98.00;;;;;;4933886;29;20071;-72
2024/01/17 00:54:37;;;;;;;6.97;3.10;;;28.50;98.40;;;;;;4936567;29;20548;-72
2024/01/17 00:57:04;;;;;;;7.57;2.88;;;28.30;99.00;;;;;;4947053;28;20023;-71
2024/01/17 00:59:32;;;;;;;10.00;2.92;;;28.50;98.70;;;;;;4939357;29;20083;-71
2024/01/17 01:02:01;;;;;;;4.65;3.10;;;28.60;98.60;;;;;;4934424;29;20040;-71
2024/01/17 01:04:29;;;;;;;3.70;2.70;;;28.40;98.60;;;;;;4940511;29;20369;-72
2024/01/17 01:06:56;;;;;;;7.40;3.00;;;28.60;98.10;;;;;;4934234;29;20485;-71
2024/01/17 01:09:24;;;;;;;5.15;2.92;;;28.70;98.30;;;;;;4961513;28;20106;-72
2024/01/17 01:11:51;;;;;;;5.55;2.70;;;28.50;98.70;;;;;;4946452;28;20059;-72
2024/01/17 01:14:19;;;;;;;5.20;2.17;;;28.60;99.00;;;;;;4952681;28;20038;-71
2024/01/17 01:16:46;;;;;;;5.50;2.33;;;28.90;98.20;;;;;;4942224;29;20032;-71
2024/01/17 01:19:13;;;;;;;6.97;2.40;;;29.20;97.90;;;;;;4937925;29;20024;-72
2024/01/17 01:21:42;;;;;;;6.85;2.28;;;29.30;98.00;;;;;;4937120;29;20043;-72
2024/01/17 01:24:10;;;;;;;4.47;2.25;;;29.30;97.30;;;;;;4937664;29;20028;-70
2024/01/17 01:26:37;;;;;;;6.90;2.45;;;28.90;97.80;;;;;;4937330;29;20381;-71
2024/01/17 01:29:04;;;;;;;3.45;2.15;;;29.00;97.60;;;;;;4952352;29;20102;-71
2024/01/17 01:31:32;;;;;;;3.60;2.25;;;29.00;97.80;;;;;;4944704;29;20035;-71
2024/01/17 01:34:00;;;;;;;6.80;2.85;;;29.20;97.40;;;;;;4957481;28;20042;-71
2024/01/17 01:36:27;;;;;;;4.63;2.33;;;28.90;97.20;;;;;;4940547;28;20028;-72
2024/01/17 01:38:55;;;;;;;3.65;1.80;;;29.00;97.30;;;;;;4937540;29;20038;-73
2024/01/17 01:41:22;;;;;;;8.88;2.75;;;29.00;97.70;;;;;;4937350;29;20389;-72
2024/01/17 01:43:49;;;;;;;4.95;2.20;;;29.10;97.40;;;;;;4937358;29;20059;-74
2024/01/17 01:46:24;;;;;;;5.25;2.53;;;29.10;97.20;;;;;;4938529;29;20064;-73
2024/01/17 01:48:52;;;;;;;4.35;1.90;;;29.40;97.20;;;;;;4944559;29;20376;-73
2024/01/17 01:51:22;;;;;;;6.20;2.50;;;29.40;96.90;;;;;;4937595;29;20039;-70
2024/01/17 01:53:53;;;;;;;5.00;3.03;;;29.40;96.30;;;;;;4950741;29;20043;-70
2024/01/17 01:56:25;;;;;;;10.35;2.70;;;29.30;96.20;;;;;;4938501;28;20031;-70
2024/01/17 01:58:56;;;;;;;5.95;2.85;;;29.20;96.70;;;;;;4941762;28;20028;-73
2024/01/17 02:01:25;;;;;;;5.43;2.75;;;29.00;96.50;;;;;;4943674;28;20043;-72
2024/01/17 02:03:54;;;;;;;6.22;2.58;;;29.10;97.30;;;;;;4942370;28;20032;-72
2024/01/17 02:06:23;;;;;;;4.40;2.50;;;29.10;97.00;;;;;;4936893;29;20031;-71
2024/01/17 02:08:55;;;;;;;6.13;2.33;;;29.20;97.20;;;;;;4936768;29;20024;-71
2024/01/17 02:11:22;;;;;;;7.07;2.13;;;29.40;96.80;;;;;;4937230;29;20035;-71
2024/01/17 02:13:50;;;;;;;8.13;2.75;;;29.30;96.50;;;;;;4940033;29;20023;-70
2024/01/17 02:16:18;;;;;;;5.82;2.17;;;29.50;96.50;;;;;;4955960;28;20105;-71
2024/01/17 02:18:47;;;;;;;5.20;2.15;;;29.40;96.40;;;;;;4948354;28;20066;-71
2024/01/17 02:21:15;;;;;;;4.45;2.00;;;29.50;96.60;;;;;;4942383;28;20040;-72
2024/01/17 02:23:42;;;;;;;6.20;2.10;;;29.50;96.90;;;;;;4956837;28;20028;-71
2024/01/17 02:26:10;;;;;;;7.82;2.38;;;29.50;96.80;;;;;;4940142;28;20024;-71
2024/01/17 02:28:37;;;;;;;6.95;2.03;;;29.40;97.30;;;;;;4936562;29;20117;-73
2024/01/17 02:31:05;;;;;;;7.35;1.98;;;29.40;96.80;;;;;;4943593;29;20055;-73
2024/01/17 02:33:34;;;;;;;4.75;1.98;;;29.60;96.90;;;;;;4936272;29;20039;-72
2024/01/17 02:36:01;;;;;;;3.70;2.00;;;29.60;96.80;;;;;;4936364;29;20106;-71
2024/01/17 02:38:28;;;;;;;6.22;2.53;;;29.90;96.30;;;;;;4944205;29;20090;-72
2024/01/17 02:40:56;;;;;;;5.15;1.95;;;30.10;96.70;;;;;;4936002;29;20102;-72
2024/01/17 02:43:24;;;;;;;6.45;2.35;;;30.30;95.80;;;;;;4935991;29;20076;-73
2024/01/17 02:45:51;;;;;;;3.85;2.25;;;30.50;95.60;;;;;;4936452;29;20484;-73
2024/01/17 02:48:19;;;;;;;4.13;1.67;;;30.90;95.10;;;;;;4942940;29;20035;-72
2024/01/17 02:50:46;;;;;;;6.30;1.83;;;31.10;95.70;;;;;;4956259;28;20027;-72
2024/01/17 02:53:13;;;;;;;4.00;1.88;;;31.30;94.40;;;;;;4939964;28;20051;-73
2024/01/17 02:55:41;;;;;;;7.82;1.83;;;31.30;94.50;;;;;;4936171;28;20035;-72
2024/01/17 02:58:08;;;;;;;4.38;1.70;;;30.90;94.30;;;;;;4951054;28;20019;-73
2024/01/17 03:00:39;;;;;;;4.03;2.03;;;30.70;94.50;;;;;;4940981;29;20430;-72
2024/01/17 03:03:06;;;;;;;5.20;1.98;;;30.50;95.00;;;;;;4936051;29;20118;-71
2024/01/17 03:05:33;;;;;;;4.65;1.80;;;30.30;95.40;;;;;;4959096;28;20476;-71
2024/01/17 03:08:01;;;;;;;7.28;2.10;;;30.30;95.70;;;;;;4935916;29;20036;-71
2024/01/17 03:10:28;;;;;;;5.10;2.35;;;30.50;95.10;;;;;;4958710;28;20027;-71
2024/01/17 03:12:56;;;;;;;3.90;1.88;;;30.40;95.30;;;;;;4937000;28;20024;-72
2024/01/17 03:15:24;;;;;;;4.30;1.90;;;30.10;95.50;;;;;;4949601;29;20033;-73
2024/01/17 03:17:51;;;;;;;4.13;1.90;;;30.10;96.20;;;;;;4938125;29;20117;-72
2024/01/17 03:20:18;;;;;;;3.47;1.80;;;29.90;96.10;;;;;;4952910;28;20024;-73
2024/01/17 03:22:46;;;;;;;7.63;2.70;;;30.10;95.80;;;;;;4936174;29;20043;-73
2024/01/17 03:25:15;;;;;;;4.50;1.85;;;30.30;95.60;;;;;;4935257;29;20079;-73
2024/01/17 03:27:43;;;;;;;11.57;2.63;;;30.20;96.20;;;;;;4940224;29;20030;-73
2024/01/17 03:30:11;;;;;;;6.22;2.20;;;30.00;95.80;;;;;;4936786;28;20059;-73
2024/01/17 03:32:39;;;;;;;5.70;2.35;;;29.70;96.00;;;;;;4943546;29;20031;-73
2024/01/17 03:35:06;;;;;;;4.88;2.60;;;29.40;96.60;;;;;;4951146;28;20031;-73
2024/01/17 03:37:34;;;;;;;8.30;3.20;;;29.30;96.60;;;;;;4938972;28;20030;-72
2024/01/17 03:40:01;;;;;;;4.50;2.38;;;29.30;96.70;;;;;;4935754;29;20028;-74
2024/01/17 03:42:28;;;;;;;6.70;2.40;;;29.10;96.50;;;;;;4935375;29;20414;-72
2024/01/17 03:44:55;;;;;;;7.30;2.20;;;28.90;97.10;;;;;;4935937;29;20023;-73
2024/01/17 03:47:23;;;;;;;5.93;2.60;;;28.90;98.30;;;;;;4935262;29;20458;-73
2024/01/17 03:49:50;;;;;;;7.18;2.80;;;28.80;98.10;;;;;;4939015;28;20496;-75
2024/01/17 03:52:20;;;;;;;6.10;2.63;;;28.80;98.60;;;;;;4946513;28;20051;-71
2024/01/17 03:54:47;;;;;;;4.78;2.42;;;28.50;98.50;;;;;;4942635;29;20031;-71
2024/01/17 03:57:15;;;;;;;4.55;2.75;;;28.30;99.70;;;;;;4945188;28;20064;-73
2024/01/17 03:59:44;;;;;;;5.60;2.92;;;28.10;99.80;;;;;;4946704;29;20810;-71
2024/01/17 04:02:11;;;;;;;5.85;3.17;;;28.00;99.90;;;;;;4946194;28;20062;-71
2024/01/17 04:04:41;;;;;;;6.72;2.78;;;27.90;99.90;;;;;;4946675;28;20039;-72
2024/01/17 04:07:11;;;;;;;6.22;2.60;;;27.90;99.90;;;;;;4944328;29;20488;-71
2024/01/17 04:09:39;;;;;;;9.18;2.70;;;27.90;99.90;;;;;;4943413;28;20079;-72
2024/01/17 04:12:06;;;;;;;8.05;2.75;;;27.90;99.90;;;;;;4940937;28;20027;-72
2024/01/17 04:14:34;;;;;;;6.55;3.30;;;28.10;99.90;;;;;;4946210;28;20031;-73
2024/01/17 04:17:01;;;;;;;7.45;3.60;;;28.20;99.90;;;;;;4935039;29;20429;-73
2024/01/17 04:19:29;;;;;;;5.70;2.60;;;28.20;99.90;;;;;;4940207;29;20127;-73
2024/01/17 04:22:01;;;;;;;7.13;2.90;;;28.10;99.90;;;;;;4940226;28;20136;-73
2024/01/17 04:24:28;;;;;;;6.15;3.25;;;28.00;99.90;;;;;;4942280;28;20019;-72
2024/01/17 04:26:56;;;;;;;8.10;3.13;;;27.70;99.90;;;;;;4944238;28;20023;-71
2024/01/17 04:29:23;;;;;;;11.20;3.80;;;27.60;99.90;;;;;;4944514;28;20031;-71
2024/01/17 04:31:52;;;;;;;12.40;4.28;;;27.80;99.90;;;;;;4936616;28;20358;-71
2024/01/17 04:34:20;;;;;;;9.80;3.40;;;27.80;99.90;;;;;;4933937;29;20028;-72
2024/01/17 04:36:47;;;;;;;6.97;3.47;;;27.70;99.90;;;;;;4937408;29;20064;-72
2024/01/17 04:39:17;;;;;;;8.90;3.15;;;27.50;99.90;;;;;;4937308;29;20086;-71
2024/01/17 04:41:45;;;;;;;10.07;3.55;;;27.50;99.90;;;;;;4934939;28;20489;-71
2024/01/17 04:44:12;;;;;;;10.40;3.80;;;27.50;99.90;;;;;;4937858;29;20046;-72
2024/01/17 04:46:39;;;;;;;9.85;3.55;;;27.40;99.90;;;;;;4938912;29;20382;-71
2024/01/17 04:49:08;;;;;;;9.07;3.95;;;27.20;99.90;;;;;;4941175;29;20019;-71
2024/01/17 04:51:35;;;;;;;10.98;4.22;;;26.90;99.90;;;;;;4945222;29;20468;-71
2024/01/17 04:54:03;;;;;;;7.65;3.83;;;26.70;99.90;;;;;;4943519;28;20043;-73
2024/01/17 04:56:30;;;;;;;12.00;5.00;;;26.60;99.90;;;;;;4939682;29;20542;-71
2024/01/17 04:58:57;;;;;;;10.35;4.10;;;26.50;99.90;;;;;;4939534;28;20094;-71
2024/01/17 05:01:25;;;;;;;16.58;4.60;;;26.40;99.90;;;;;;4950450;29;20043;-72
2024/01/17 05:03:52;;;;;;;12.38;3.95;;;26.40;99.90;;;;;;4946101;28;20023;-71
2024/01/17 05:06:20;;;;;;;9.30;3.50;;;26.30;99.90;;;;;;4940793;28;20055;-71
2024/01/17 05:08:47;;;;;;;11.52;4.15;;;26.20;99.90;;;;;;4941637;29;20067;-73
2024/01/17 05:11:21;;;;;;;8.15;3.75;;;26.10;99.90;;;;;;4945644;29;20024;-71
2024/01/17 05:13:49;;;;;;;11.75;4.13;;;26.00;99.90;;;;;;4940988;29;20023;-74
2024/01/17 05:16:17;;;;;;;8.27;3.83;;;25.90;99.90;;;;;;4944484;28;20792;-72
2024/01/17 05:18:45;;;;;;;13.88;4.38;;;26.00;99.90;;;;;;4947254;29;20393;-72
2024/01/17 05:21:13;;;;;;;8.02;4.57;;;25.90;99.90;;;;;;4947973;29;20034;-71
2024/01/17 05:23:40;;;;;;;12.07;4.68;;;25.80;99.90;;;;;;4938104;29;20023;-72
2024/01/17 05:26:08;;;;;;;11.07;4.85;;;25.80;99.90;;;;;;4945671;29;20028;-72
2024/01/17 05:28:35;;;;;;;12.77;4.90;;;25.70;99.90;;;;;;4945080;29;20082;-72
2024/01/17 05:31:03;;;;;;;17.20;5.38;;;25.70;99.90;;;;;;4948856;28;20461;-73
2024/01/17 05:33:30;;;;;;;12.57;5.78;;;25.70;99.90;;;;;;4937248;29;20103;-74
2024/01/17 05:35:57;;;;;;;13.75;5.72;;;25.70;99.90;;;;;;4944818;29;20031;-74
2024/01/17 05:38:25;;;;;;;13.82;5.55;;;25.70;99.90;;;;;;4937140;29;20032;-73
2024/01/17 05:40:52;;;;;;;14.75;6.43;;;25.80;99.90;;;;;;4942756;29;20454;-73
2024/01/17 05:43:19;;;;;;;15.02;6.95;;;25.70;99.90;;;;;;4944925;28;20381;-74
2024/01/17 05:45:47;;;;;;;13.15;7.85;;;25.70;99.90;;;;;;4949728;28;20386;-71
2024/01/17 05:48:15;;;;;;;12.73;7.38;;;25.60;99.90;;;;;;4945973;29;20032;-70
2024/01/17 05:50:43;;;;;;;14.18;8.30;;;25.60;99.90;;;;;;4946822;28;20038;-70
2024/01/17 05:53:11;;;;;;;14.43;8.23;;;25.60;99.90;;;;;;4943565;28;20051;-71
2024/01/17 05:55:38;;;;;;;17.58;9.73;;;25.50;99.90;;;;;;4940503;29;20016;-70
2024/01/17 05:58:05;;;;;;;18.30;9.45;;;25.30;99.90;;;;;;4942811;28;20019;-71
2024/01/17 06:00:33;;;;;;;18.65;10.68;;;25.20;99.90;;;;;;4941921;28;20355;-72
2024/01/17 06:03:00;;;;;;;18.77;9.65;;;25.10;99.90;;;;;;4939396;28;20035;-70
2024/01/17 06:05:28;;;;;;;16.15;9.13;;;25.00;99.90;;;;;;4944397;28;20027;-71
2024/01/17 06:07:55;;;;;;;17.25;9.05;;;24.90;99.90;;;;;;4938063;29;20035;-70
2024/01/17 06:10:24;;;;;;;17.83;8.63;;;24.90;99.90;;;;;;4940508;29;20095;-70
2024/01/17 06:12:54;;;;;;;21.65;8.15;;;24.90;99.90;;;;;;4937762;28;20164;-72
2024/01/17 06:15:21;;;;;;;18.15;9.40;;;24.90;99.90;;;;;;4940216;29;20042;-71
2024/01/17 06:17:49;;;;;;;16.80;8.30;;;25.00;99.90;;;;;;4940871;29;20035;-72
2024/01/17 06:20:16;;;;;;;13.77;7.28;;;25.20;99.90;;;;;;4948930;28;20039;-71
2024/01/17 06:22:44;;;;;;;12.18;6.25;;;25.10;99.90;;;;;;4938771;29;20039;-72
2024/01/17 06:25:11;;;;;;;10.90;6.63;;;25.00;99.90;;;;;;4940624;29;20035;-71
2024/01/17 06:27:38;;;;;;;9.40;3.90;;;25.10;99.90;;;;;;4940557;28;20027;-70
2024/01/17 06:30:06;;;;;;;8.10;3.70;;;25.00;99.90;;;;;;4949437;28;20078;-71
2024/01/17 06:32:35;;;;;;;6.93;3.08;;;25.10;99.90;;;;;;4937771;29;20024;-71
2024/01/17 06:35:02;;;;;;;3.03;2.10;;;25.10;99.90;;;;;;4942197;28;20583;-71
2024/01/17 06:37:31;;;;;;;4.55;2.58;;;24.90;99.90;;;;;;4942423;28;20039;-71
2024/01/17 06:39:58;;;;;;;4.10;1.98;;;24.80;99.90;;;;;;4955751;28;20404;-71
2024/01/17 06:42:25;;;;;;;3.65;1.58;;;24.80;99.90;;;;;;4944683;28;20039;-71
2024/01/17 06:44:53;;;;;;;4.95;1.50;;;24.70;99.90;;;;;;4936799;29;20042;-71
2024/01/17 06:47:20;;;;;;;4.80;1.30;;;24.70;99.90;;;;;;4947888;28;20119;-71
2024/01/17 06:49:47;;;;;;;3.22;1.38;;;24.90;99.90;;;;;;4942080;28;20031;-72
2024/01/17 06:52:15;;;;;;;3.65;1.83;;;25.00;99.90;;;;;;4945643;29;20396;-72
2024/01/17 06:54:42;;;;;;;4.95;2.10;;;25.20;99.90;;;;;;4936578;29;20087;-73
2024/01/17 06:57:09;;;;;;;3.65;1.65;;;25.30;99.90;;;;;;4943922;28;20590;-72
2024/01/17 06:59:37;;;;;;;4.75;1.75;;;25.30;99.90;;;;;;4955796;28;20035;-73
2024/01/17 07:02:04;;;;;;;4.10;1.25;;;25.30;99.90;;;;;;4939748;28;20051;-71
2024/01/17 07:04:32;;;;;;;7.07;1.50;;;25.30;99.90;;;;;;4945984;28;20038;-69
2024/01/17 07:06:59;;;;;;;4.35;2.20;;;25.30;99.90;;;;;;4942786;28;20035;-72
2024/01/17 07:09:27;;;;;;;2.72;1.70;;;25.30;99.90;;;;;;4946516;28;20110;-71
2024/01/17 07:11:54;;;;;;;6.82;1.92;;;25.30;99.90;;;;;;4939392;29;20035;-70
2024/01/17 07:14:21;;;;;;;7.13;2.90;;;25.20;99.90;;;;;;4937401;28;20410;-69
2024/01/17 07:16:49;;;;;;;4.30;2.03;;;25.30;99.90;;;;;;4939276;29;20038;-71
2024/01/17 07:19:16;;;;;;;5.18;1.90;;;25.20;99.90;;;;;;4936863;29;20042;-72
2024/01/17 07:21:43;;;;;;;5.47;2.60;;;25.20;99.90;;;;;;4937694;29;20039;-71
2024/01/17 07:24:12;;;;;;;5.65;2.50;;;25.10;99.90;;;;;;4938664;29;20035;-71
2024/01/17 07:26:39;;;;;;;5.35;2.42;;;25.10;99.90;;;;;;4942495;29;20032;-71
2024/01/17 07:29:07;;;;;;;2.80;1.83;;;25.20;99.90;;;;;;4946929;28;20403;-71
2024/01/17 07:31:34;;;;;;;3.75;1.95;;;25.30;99.90;;;;;;4950265;28;20484;-72
2024/01/17 07:34:02;;;;;;;6.53;2.80;;;25.40;99.90;;;;;;4940421;29;20039;-72
2024/01/17 07:36:29;;;;;;;5.55;2.40;;;25.30;99.90;;;;;;4935017;29;20019;-69
2024/01/17 07:38:56;;;;;;;4.18;2.05;;;25.20;99.90;;;;;;4935232;29;20027;-68
2024/01/17 07:41:24;;;;;;;4.72;2.33;;;25.10;99.90;;;;;;4937852;29;20042;-68
2024/01/17 07:43:51;;;;;;;6.82;2.50;;;25.20;99.90;;;;;;4949190;28;20099;-69
2024/01/17 07:46:18;;;;;;;5.43;2.63;;;25.20;99.90;;;;;;4943670;28;20054;-69
2024/01/17 07:48:46;;;;;;;7.65;2.63;;;25.20;99.90;;;;;;4943912;28;20081;-69
2024/01/17 07:51:14;;;;;;;4.97;2.25;;;25.40;99.90;;;;;;4936887;28;20031;-69
2024/01/17 07:53:41;;;;;;;6.00;2.50;;;25.60;99.90;;;;;;4941935;28;20058;-69
2024/01/17 07:56:10;;;;;;;3.83;2.47;;;25.60;99.90;;;;;;4934387;29;20032;-70
2024/01/17 07:58:37;;;;;;;4.47;2.28;;;25.70;99.90;;;;;;4941519;29;20381;-70
2024/01/17 08:01:05;;;;;;;4.47;2.33;;;25.90;99.90;;;;;;4940703;29;20023;-69
2024/01/17 08:03:32;;;;;;;5.28;2.70;;;26.00;99.90;;;;;;4939250;29;20024;-69
2024/01/17 08:05:59;;;;;;;4.38;2.55;;;25.80;99.90;;;;;;4937002;29;20032;-69
2024/01/17 08:08:27;;;;;;;6.45;3.15;;;25.80;99.90;;;;;;4943340;29;20031;-70
2024/01/17 08:10:55;;;;;;;7.50;3.30;;;25.90;99.90;;;;;;4935555;29;20078;-69
2024/01/17 08:13:22;;;;;;;7.32;3.10;;;25.60;99.90;;;;;;4948451;28;20028;-69
2024/01/17 08:15:50;;;;;;;10.43;4.90;;;25.30;99.90;;;;;;4940558;28;20041;-69
2024/01/17 08:18:17;;;;;;;14.65;5.43;;;25.00;99.90;;;;;;4942935;28;20074;-68
2024/01/17 08:20:45;;;;;;;13.77;6.13;;;24.80;99.90;;;;;;4938272;29;20488;-69
2024/01/17 08:23:12;;;;;;;21.38;9.00;;;24.70;99.90;;;;;;4943045;29;20039;-69
2024/01/17 08:25:40;;;;;;;15.10;8.13;;;24.70;99.90;;;;;;4934574;29;20034;-69
2024/01/17 08:28:07;;;;;;;16.10;7.72;;;24.80;99.90;;;;;;4941389;29;20028;-69
2024/01/17 08:30:34;;;;;;;17.60;7.35;;;24.60;99.90;;;;;;4934343;29;20028;-69
2024/01/17 08:33:02;;;;;;;16.05;7.93;;;24.60;99.90;;;;;;4941834;29;20032;-70
2024/01/17 08:35:29;;;;;;;19.65;9.18;;;24.70;99.90;;;;;;4934355;28;20020;-70
2024/01/17 08:37:57;;;;;;;16.15;7.97;;;24.60;99.90;;;;;;4949761;28;20031;-68
2024/01/17 08:40:24;;;;;;;13.35;6.50;;;24.40;99.90;;;;;;4938835;28;20086;-69
2024/01/17 08:42:51;;;;;;;13.35;6.90;;;24.50;99.90;;;;;;4935390;29;20048;-69
2024/01/17 08:45:19;;;;;;;15.45;7.00;;;24.60;99.90;;;;;;4934973;29;20039;-69
2024/01/17 08:47:46;;;;;;;16.17;7.68;;;24.90;99.90;;;;;;4938030;29;20068;-69
2024/01/17 08:50:14;;;;;;;15.75;8.38;;;24.90;99.90;;;;;;4935017;29;20035;-68
2024/01/17 08:52:42;;;;;;;17.42;8.60;;;24.90;99.90;;;;;;4949331;28;20489;-69
2024/01/17 08:55:10;;;;;;;14.88;8.50;;;24.90;99.90;;;;;;4938341;29;20497;-69
2024/01/17 08:57:38;;;;;;;17.15;8.63;;;24.70;99.90;;;;;;4934165;29;20484;-69
2024/01/17 09:00:06;;;;;;;12.63;7.05;;;24.70;99.90;;;;;;4938307;29;20114;-69
2024/01/17 09:02:34;;;;;;;18.15;9.18;;;24.80;99.90;;;;;;4941119;29;20036;-71
2024/01/17 09:05:02;;;;;;;16.10;8.45;;;24.90;99.90;;;;;;4938210;29;20060;-68
2024/01/17 09:07:33;;;;;;;16.00;7.82;;;24.70;99.90;;;;;;4942981;29;20023;-68
2024/01/17 09:10:00;;;;;;;12.77;7.88;;;24.60;99.90;;;;;;4942331;29;20427;-68
2024/01/17 09:12:27;;;;;;;20.65;8.45;;;24.40;99.90;;;;;;4939728;28;20413;-69
2024/01/17 09:14:55;;;;;;;10.57;6.25;;;24.30;99.90;;;;;;4934781;29;20034;-68
2024/01/17 09:17:23;;;;;;;15.43;6.88;;;24.30;99.90;;;;;;4932689;28;20098;-68
2024/01/17 09:19:50;;;;;;;12.23;4.80;;;24.10;99.90;;;;;;4941708;28;20041;-69
2024/01/17 09:22:18;;;;;;;16.70;6.32;;;24.10;99.90;;;;;;4946712;28;20465;-68
2024/01/17 09:24:47;;;;;;;13.27;5.80;;;24.00;99.90;;;;;;4946563;28;20082;-67
2024/01/17 09:27:14;;;;;;;15.77;5.38;;;24.10;99.90;;;;;;4938338;29;20484;-69
2024/01/17 09:29:41;;;;;;;12.75;5.95;;;24.10;99.90;;;;;;4948589;28;20475;-68
2024/01/17 09:32:09;;;;;;;11.85;5.13;;;24.00;99.90;;;;;;4939434;29;20122;-68
2024/01/17 09:34:37;;;;;;;8.23;3.53;;;23.80;99.90;;;;;;4943349;28;20031;-68
2024/01/17 09:37:05;;;;;;;10.38;3.95;;;23.80;99.90;;;;;;4948440;29;20038;-68
2024/01/17 09:39:32;;;;;;;8.35;3.47;;;23.80;99.90;;;;;;4938586;29;20031;-69
2024/01/17 09:42:00;;;;;;;8.60;3.47;;;23.70;99.90;;;;;;4950453;29;20035;-70
2024/01/17 09:44:28;;;;;;;10.85;3.58;;;23.70;99.90;;;;;;4938322;28;20027;-69
2024/01/17 09:47:01;;;;;;;9.60;3.97;;;23.60;99.90;;;;;;4942025;28;20034;-69
2024/01/17 09:49:29;;;;;;;7.07;2.50;;;23.70;99.90;;;;;;4944375;28;20369;-70
2024/01/17 09:51:57;;;;;;;4.30;2.63;;;23.60;99.90;;;;;;4939882;28;20035;-68
2024/01/17 09:54:25;;;;;;;5.60;2.28;;;23.50;99.90;;;;;;4938576;29;20027;-68
2024/01/17 09:56:57;;;;;;;7.05;2.88;;;23.30;99.90;;;;;;4941189;29;20042;-67
2024/01/17 09:59:31;;;;;;;6.07;2.80;;;23.40;99.90;;;;;;4945942;29;20024;-68
2024/01/17 10:01:58;;;;;;;4.82;2.72;;;23.40;99.90;;;;;;4938895;29;20043;-68
2024/01/17 10:04:26;;;;;;;5.97;2.90;;;23.40;99.90;;;;;;4936254;29;20055;-68
2024/01/17 10:06:57;;;;;;;4.47;2.58;;;23.60;99.90;;;;;;4939707;29;20560;-69
2024/01/17 10:09:24;;;;;;;5.93;2.50;;;23.80;99.90;;;;;;4942943;29;20031;-68
2024/01/17 10:11:52;;;;;;;5.40;2.80;;;23.90;99.90;;;;;;4937926;28;20039;-68
2024/01/17 10:14:23;;;;;;;8.02;2.85;;;23.70;99.90;;;;;;4948402;28;20480;-68
2024/01/17 10:16:50;;;;;;;4.47;2.47;;;23.60;99.90;;;;;;4945612;28;20035;-68
2024/01/17 10:19:18;;;;;;;4.10;2.22;;;23.40;99.90;;;;;;4941026;29;20036;-68
2024/01/17 10:21:45;;;;;;;4.55;2.08;;;23.40;99.90;;;;;;4934863;29;20046;-68
2024/01/17 10:24:12;;;;;;;6.32;2.65;;;23.50;99.90;;;;;;4948287;28;20479;-68
2024/01/17 10:26:44;;;;;;;5.55;2.33;;;23.50;99.90;;;;;;4935830;29;20032;-69
2024/01/17 10:29:12;;;;;;;6.35;2.47;;;23.40;99.90;;;;;;4935990;29;20023;-70
2024/01/17 10:31:40;;;;;;;4.47;2.42;;;23.20;99.90;;;;;;4944984;28;20708;-69
2024/01/17 10:34:08;;;;;;;6.47;2.22;;;23.10;99.90;;;;;;4940376;28;20020;-69
2024/01/17 10:36:39;;;;;;;6.13;2.53;;;23.10;99.90;;;;;;4946475;28;20032;-69
2024/01/17 10:39:07;;;;;;;3.95;2.08;;;23.10;99.90;;;;;;4949122;28;20041;-69
2024/01/17 10:41:36;;;;;;;3.50;1.92;;;23.10;99.90;;;;;;4947261;28;20043;-69
2024/01/17 10:44:05;;;;;;;7.00;2.50;;;23.40;99.90;;;;;;4940006;29;20035;-69
2024/01/17 10:46:33;;;;;;;4.40;1.88;;;23.40;99.90;;;;;;4942299;28;20027;-69
2024/01/17 10:49:00;;;;;;;5.70;1.92;;;23.40;99.90;;;;;;4942435;28;20031;-69
2024/01/17 10:51:32;;;;;;;4.22;2.00;;;23.50;99.90;;;;;;4943828;29;20039;-69
2024/01/17 10:54:00;;;;;;;5.18;2.47;;;23.50;99.90;;;;;;4953381;28;20389;-69
2024/01/17 10:56:29;;;;;;;4.47;2.13;;;23.60;99.90;;;;;;4939414;28;20024;-69
2024/01/17 10:58:58;;;;;;;5.72;2.38;;;23.40;99.90;;;;;;4960500;28;20436;-69
2024/01/17 11:01:35;;;;;;;4.78;2.20;;;23.40;99.90;;;;;;4935161;28;20063;-69
2024/01/17 11:04:34;;;;;;;5.18;2.30;;;23.40;99.90;;;;;;4935247;29;20030;-69
2024/01/17 11:07:05;;;;;;;7.03;3.13;;;23.40;99.90;;;;;;4936808;29;20047;-70
2024/01/17 11:09:36;;;;;;;5.07;1.98;;;23.40;99.90;;;;;;4936628;29;20477;-70
2024/01/17 11:12:05;;;;;;;5.15;2.80;;;23.50;99.90;;;;;;4934998;28;20594;-70
2024/01/17 11:14:33;;;;;;;4.43;2.08;;;23.40;99.90;;;;;;4947183;29;20031;-69
2024/01/17 11:17:03;;;;;;;6.30;2.92;;;23.30;99.90;;;;;;4937726;28;20032;-70
2024/01/17 11:19:36;;;;;;;3.35;1.83;;;23.40;99.90;;;;;;4947813;29;20038;-70
2024/01/17 11:22:03;;;;;;;2.97;2.00;;;23.40;99.90;;;;;;4934968;28;20048;-76
2024/01/17 11:25:10;;;;;;;5.38;2.08;;;23.30;99.90;;;;;;4945809;29;20390;-72
2024/01/17 11:28:09;;;;;;;2.33;1.77;;;23.50;99.90;;;;;;4934798;29;20049;-70
2024/01/17 11:30:35;;;;;;;;;;;23.70;99.90;;;;;;4935273;29;20042;-69
2024/01/17 11:33:13;;;;;;;6.78;2.00;;;23.80;99.90;;;;;;4935417;29;20511;-71
2024/01/17 11:35:46;;;;;;;3.15;1.95;;;23.80;99.90;;;;;;4936518;29;20515;-70
2024/01/17 11:38:26;;;;;;;3.50;1.92;;;23.70;99.90;;;;;;4948229;29;20426;-71
2024/01/17 11:41:08;;;;;;;6.00;1.88;;;23.70;99.90;;;;;;4941183;29;20361;-68
2024/01/17 11:43:42;;;;;;;7.20;1.90;;;23.70;99.90;;;;;;4934407;29;20039;-70
2024/01/17 11:46:10;;;;;;;4.47;2.15;;;23.60;99.90;;;;;;4936601;29;20126;-70
2024/01/17 11:48:39;;;;;;;4.03;2.08;;;23.80;99.90;;;;;;4940415;29;20453;-70
2024/01/17 11:51:14;;;;;;;5.00;1.95;;;23.90;99.90;;;;;;4935349;29;20031;-69
2024/01/17 11:53:49;;;;;;;6.13;2.17;;;24.00;99.90;;;;;;4949582;28;20458;-70
2024/01/17 11:56:20;;;;;;;4.30;2.50;;;23.80;99.90;;;;;;4939932;29;20027;-68
2024/01/17 11:59:08;;;;;;;3.08;1.90;;;23.80;99.90;;;;;;4938573;28;20125;-71
2024/01/17 12:01:44;;;;;;;5.13;2.60;;;23.90;99.90;;;;;;4935783;29;20040;-69
2024/01/17 12:04:11;;;;;;;4.30;2.22;;;23.70;99.90;;;;;;4941701;28;20360;-69
2024/01/17 12:06:40;;;;;;;5.97;2.40;;;23.70;99.90;;;;;;4949646;28;20420;-69
2024/01/17 12:09:12;;;;;;;5.10;2.08;;;23.70;99.90;;;;;;4934832;29;20024;-69
2024/01/17 12:11:40;;;;;;;10.43;3.20;;;23.60;99.90;;;;;;4941076;29;20078;-70
2024/01/17 12:14:07;;;;;;;7.55;2.30;;;23.60;99.90;;;;;;4938974;29;20134;-73
2024/01/17 12:16:35;;;;;;;5.13;2.50;;;23.60;99.90;;;;;;4938620;29;20031;-69
2024/01/17 12:19:03;;;;;;;7.68;2.50;;;23.50;99.90;;;;;;4944341;28;20386;-71
2024/01/17 12:21:31;;;;;;;5.63;2.30;;;23.40;99.90;;;;;;4933751;29;20508;-71
2024/01/17 12:23:58;;;;;;;6.28;2.80;;;23.30;99.90;;;;;;4947992;28;20436;-71
2024/01/17 12:26:26;;;;;;;4.90;2.67;;;23.40;99.90;;;;;;4942202;28;20083;-70
2024/01/17 12:29:07;;;;;;;9.82;2.80;;;23.30;99.90;;;;;;4934372;29;20031;-69
2024/01/17 12:31:34;;;;;;;4.63;2.33;;;23.40;99.90;;;;;;4940712;29;20027;-68
2024/01/17 12:34:02;;;;;;;4.93;2.65;;;23.40;99.90;;;;;;4946200;28;20445;-69
2024/01/17 12:36:30;;;;;;;6.00;2.17;;;23.30;99.90;;;;;;4941972;28;20030;-70
2024/01/17 12:39:02;;;;;;;6.65;2.35;;;23.20;99.90;;;;;;4946899;28;20054;-68
2024/01/17 12:41:29;;;;;;;4.80;2.38;;;23.30;99.90;;;;;;4945207;29;20027;-69
2024/01/17 12:43:57;;;;;;;6.10;2.22;;;23.20;99.90;;;;;;4938368;29;20036;-70
2024/01/17 12:46:25;;;;;;;9.27;2.42;;;23.10;99.90;;;;;;4939636;29;20034;-68
2024/01/17 12:48:58;;;;;;;4.43;2.00;;;23.00;99.90;;;;;;4938376;28;20027;-69
2024/01/17 12:51:26;;;;;;;4.47;2.17;;;23.00;99.90;;;;;;4949284;28;20027;-70